Time;durP1;ratioP1;P1;durP2;ratioP2;P2;SDS_P1;SDS_P2;PMS_P1;PMS_P2;Temp;Humidity;BMP_temperature;BMP_pressure;BME280_temperature;BME280_humidity;BME280_pressure;Samples;Min_cycle;Max_cycle;Signal;HPM_P1;HPM_P2
2022/03/09 00:00:15;;;;;;;15.52;6.88;;;;;;;9.04;33.43;101902.19;5023956;28;20129;-72
2022/03/09 00:02:41;;;;;;;17.73;7.60;;;;;;;9.03;33.52;101906.69;5016089;28;20077;-72
2022/03/09 00:05:08;;;;;;;14.98;7.15;;;;;;;9.10;33.46;101907.06;5016262;28;20046;-72
2022/03/09 00:07:35;;;;;;;15.55;6.53;;;;;;;9.09;33.30;101903.53;5016120;28;20124;-72
2022/03/09 00:10:03;;;;;;;16.50;6.93;;;;;;;9.05;33.45;101899.38;5015693;28;20056;-72
2022/03/09 00:12:30;;;;;;;12.30;6.60;;;;;;;9.07;33.70;101899.25;5018995;28;20050;-72
2022/03/09 00:14:56;;;;;;;13.93;6.55;;;;;;;9.05;33.51;101898.53;5015731;28;20133;-72
2022/03/09 00:17:25;;;;;;;18.00;6.70;;;;;;;9.03;33.66;101901.34;5015854;28;20072;-72
2022/03/09 00:19:52;;;;;;;16.27;6.65;;;;;;;8.91;33.63;101901.44;5015576;28;20044;-72
2022/03/09 00:22:18;;;;;;;14.52;7.25;;;;;;;8.96;33.66;101899.28;5015486;28;20049;-72
2022/03/09 00:24:45;;;;;;;13.93;6.53;;;;;;;8.90;33.71;101902.41;5018882;28;20050;-72
2022/03/09 00:27:11;;;;;;;18.92;7.03;;;;;;;8.95;33.88;101908.25;5035273;28;20504;-72
2022/03/09 00:29:39;;;;;;;19.73;7.45;;;;;;;8.90;33.99;101905.94;5022860;28;20069;-72
2022/03/09 00:32:06;;;;;;;15.23;7.25;;;;;;;8.83;33.98;101904.72;5020817;28;20177;-72
2022/03/09 00:34:33;;;;;;;14.60;7.53;;;;;;;8.82;34.02;101905.69;5034092;28;20068;-72
2022/03/09 00:37:00;;;;;;;14.75;7.70;;;;;;;8.80;34.05;101902.28;5034978;28;20136;-72
2022/03/09 00:39:27;;;;;;;17.02;7.38;;;;;;;8.82;33.82;101897.69;5034350;28;20068;-72
2022/03/09 00:41:53;;;;;;;16.73;7.85;;;;;;;8.78;34.05;101894.38;5034470;28;20117;-72
2022/03/09 00:44:19;;;;;;;15.35;7.07;;;;;;;8.81;34.25;101898.63;5034282;28;20095;-72
2022/03/09 00:46:46;;;;;;;15.25;7.97;;;;;;;8.75;34.46;101894.63;5034768;28;20041;-72
2022/03/09 00:49:13;;;;;;;21.23;7.95;;;;;;;8.72;34.18;101896.69;5032856;28;20405;-72
2022/03/09 00:51:39;;;;;;;16.85;7.15;;;;;;;8.75;34.27;101894.63;5033659;28;20129;-72
2022/03/09 00:54:06;;;;;;;15.80;7.20;;;;;;;8.76;34.33;101896.31;5034146;28;20049;-72
2022/03/09 00:56:33;;;;;;;18.63;7.95;;;;;;;8.73;34.30;101898.38;5033889;28;20128;-72
2022/03/09 00:59:00;;;;;;;15.02;7.82;;;;;;;8.63;34.47;101902.75;5034176;28;20099;-72
2022/03/09 01:01:26;;;;;;;14.52;7.07;;;;;;;8.56;34.73;101899.69;5034216;28;20065;-72
2022/03/09 01:03:53;;;;;;;13.38;7.40;;;;;;;8.59;34.72;101897.63;5034003;28;20065;-72
2022/03/09 01:06:20;;;;;;;18.27;8.48;;;;;;;8.57;34.45;101894.22;5034120;28;20049;-72
2022/03/09 01:08:47;;;;;;;20.27;9.02;;;;;;;8.48;34.82;101902.97;5034676;28;20525;-72
2022/03/09 01:11:13;;;;;;;22.70;8.70;;;;;;;8.66;34.50;101905.19;5034422;28;20068;-72
2022/03/09 01:13:41;;;;;;;18.50;8.45;;;;;;;8.44;34.62;101904.16;5033868;28;20103;-72
2022/03/09 01:16:08;;;;;;;21.13;8.77;;;;;;;8.50;34.65;101909.03;5034155;28;20073;-72
2022/03/09 01:18:35;;;;;;;20.10;9.38;;;;;;;8.42;34.85;101898.06;5033918;28;20049;-72
2022/03/09 01:21:01;;;;;;;19.23;8.80;;;;;;;8.45;34.92;101903.19;5033081;28;20124;-72
2022/03/09 01:23:28;;;;;;;16.17;8.15;;;;;;;8.39;35.11;101898.31;5034033;28;20152;-72
2022/03/09 01:25:54;;;;;;;18.90;9.35;;;;;;;8.52;34.59;101895.56;5033762;28;20073;-72
2022/03/09 01:28:21;;;;;;;16.92;8.95;;;;;;;8.28;35.03;101903.63;5032340;28;20052;-72
2022/03/09 01:30:47;;;;;;;14.68;8.40;;;;;;;8.33;34.86;101891.63;5014491;28;20104;-71
2022/03/09 01:33:14;;;;;;;20.60;9.18;;;;;;;8.34;35.24;101893.31;5014002;28;20073;-71
2022/03/09 01:35:41;;;;;;;20.75;9.23;;;;;;;8.30;35.32;101883.81;5013687;28;20065;-72
2022/03/09 01:38:07;;;;;;;19.42;8.95;;;;;;;8.34;35.01;101893.31;5013407;28;20050;-71
2022/03/09 01:40:34;;;;;;;20.45;9.32;;;;;;;8.40;35.19;101896.47;5013632;28;20066;-71
2022/03/09 01:43:01;;;;;;;19.42;8.27;;;;;;;8.36;35.26;101891.38;5013695;28;20038;-72
2022/03/09 01:45:27;;;;;;;20.40;8.68;;;;;;;8.38;34.96;101889.44;5013055;28;20046;-71
2022/03/09 01:47:54;;;;;;;17.13;8.52;;;;;;;8.33;35.04;101896.09;5013430;28;20504;-72
2022/03/09 01:50:20;;;;;;;19.73;7.63;;;;;;;8.32;34.91;101894.38;5020900;28;20048;-71
2022/03/09 01:52:47;;;;;;;15.07;8.00;;;;;;;8.30;35.02;101882.97;5018077;28;20069;-72
2022/03/09 01:55:14;;;;;;;17.90;8.50;;;;;;;8.32;34.91;101875.69;5012966;28;20048;-72
2022/03/09 01:57:41;;;;;;;16.13;8.05;;;;;;;8.27;35.18;101884.06;5013255;28;20121;-72
2022/03/09 02:00:08;;;;;;;14.95;7.70;;;;;;;8.19;35.30;101878.41;5013375;28;20096;-72
2022/03/09 02:02:35;;;;;;;19.38;8.13;;;;;;;8.27;35.44;101883.22;5013372;28;20065;-71
2022/03/09 02:11:31;;;;;;;16.30;7.82;;;;;;;8.09;35.63;101872.09;5012881;28;20050;-72
2022/03/09 02:13:59;;;;;;;15.90;8.15;;;;;;;8.07;35.65;101876.69;4995742;28;20485;-72
2022/03/09 02:16:25;;;;;;;17.77;7.60;;;;;;;8.09;35.63;101878.28;4995741;28;20042;-72
2022/03/09 02:18:52;;;;;;;19.42;8.15;;;;;;;8.09;35.57;101886.31;5012699;28;20104;-72
2022/03/09 02:21:20;;;;;;;17.00;8.70;;;;;;;8.11;35.63;101880.84;5013400;28;20046;-71
2022/03/09 02:23:47;;;;;;;16.60;7.57;;;;;;;8.08;35.42;101889.09;5012939;28;20054;-72
2022/03/09 02:26:13;;;;;;;14.80;8.13;;;;;;;7.97;35.81;101881.03;5012647;28;20443;-72
2022/03/09 02:28:45;;;;;;;19.80;9.35;;;;;;;7.98;35.75;101880.03;5012796;28;20084;-71
2022/03/09 02:31:12;;;;;;;18.80;8.52;;;;;;;7.99;35.72;101877.28;5012686;28;20056;-71
2022/03/09 02:33:42;;;;;;;17.80;8.05;;;;;;;7.90;35.73;101880.63;5012533;28;20050;-70
2022/03/09 02:36:08;;;;;;;15.95;9.05;;;;;;;8.01;35.78;101875.31;5012336;28;20080;-72
2022/03/09 02:38:35;;;;;;;18.77;9.63;;;;;;;7.90;35.74;101885.97;5012714;28;20045;-71
2022/03/09 02:41:01;;;;;;;17.15;8.90;;;;;;;7.82;36.05;101874.97;5024028;28;20041;-71
2022/03/09 02:43:28;;;;;;;23.77;9.43;;;;;;;7.83;36.04;101879.34;4994868;28;20125;-71
2022/03/09 02:45:54;;;;;;;18.90;10.18;;;;;;;7.80;36.05;101888.44;5016285;28;20132;-71
2022/03/09 02:48:21;;;;;;;21.77;10.15;;;;;;;7.76;36.16;101881.63;5029167;28;20058;-71
2022/03/09 02:50:47;;;;;;;21.25;10.85;;;;;;;7.76;36.42;101880.78;5016658;28;20442;-71
2022/03/09 02:53:14;;;;;;;22.00;10.20;;;;;;;7.69;36.60;101893.72;5012772;28;20066;-72
2022/03/09 02:55:40;;;;;;;20.98;10.85;;;;;;;7.69;36.15;101884.88;5011247;28;20054;-72
2022/03/09 02:58:07;;;;;;;24.02;11.02;;;;;;;7.73;36.31;101891.69;5012462;28;20128;-71
2022/03/09 03:00:33;;;;;;;22.50;11.43;;;;;;;7.64;36.22;101885.22;5012127;28;20064;-71
2022/03/09 03:03:00;;;;;;;21.75;10.63;;;;;;;7.57;36.58;101889.25;5013125;28;20124;-72
2022/03/09 03:05:26;;;;;;;18.17;10.18;;;;;;;7.54;36.68;101898.38;5022118;28;20124;-72
2022/03/09 03:07:53;;;;;;;23.13;10.50;;;;;;;7.56;36.27;101896.44;5018817;28;20128;-71
2022/03/09 03:10:20;;;;;;;21.83;10.30;;;;;;;7.58;36.36;101909.69;5031405;28;20125;-71
2022/03/09 03:12:46;;;;;;;24.50;10.07;;;;;;;7.49;36.62;101894.31;5032142;28;20069;-70
2022/03/09 03:15:13;;;;;;;18.58;10.40;;;;;;;7.40;36.73;101902.03;5031731;28;20477;-72
2022/03/09 03:17:39;;;;;;;20.08;9.80;;;;;;;7.50;36.36;101896.91;5031205;28;20057;-72
2022/03/09 03:20:06;;;;;;;21.55;9.77;;;;;;;7.40;36.61;101896.72;5031277;28;20132;-72
2022/03/09 03:22:33;;;;;;;20.88;10.70;;;;;;;7.44;36.92;101892.00;5031436;28;20164;-71
2022/03/09 03:24:59;;;;;;;20.55;10.48;;;;;;;7.45;36.59;101896.38;5031546;28;20124;-72
2022/03/09 03:27:26;;;;;;;19.95;9.57;;;;;;;7.41;36.50;101892.22;5029302;28;20045;-71
2022/03/09 03:29:52;;;;;;;22.67;10.30;;;;;;;7.42;36.92;101884.09;5011860;28;20104;-71
2022/03/09 03:32:19;;;;;;;19.55;9.85;;;;;;;7.35;36.76;101884.66;5012286;28;20397;-72
2022/03/09 03:34:45;;;;;;;18.77;9.70;;;;;;;7.36;36.74;101889.88;5012270;28;20108;-72
2022/03/09 03:37:12;;;;;;;20.63;10.23;;;;;;;7.41;37.04;101900.22;5012237;28;20148;-72
2022/03/09 03:39:38;;;;;;;23.38;10.38;;;;;;;7.38;36.85;101887.09;5011634;28;20049;-72
2022/03/09 03:42:06;;;;;;;22.63;10.40;;;;;;;7.16;37.10;101896.66;5011447;28;20549;-72
2022/03/09 03:44:33;;;;;;;21.63;10.30;;;;;;;7.22;36.91;101900.69;5011711;28;20489;-71
2022/03/09 03:46:59;;;;;;;20.25;10.50;;;;;;;7.10;37.37;101899.75;5011717;28;20057;-72
2022/03/09 03:49:26;;;;;;;20.25;10.57;;;;;;;7.04;37.26;101900.16;5011685;28;20445;-71
2022/03/09 03:51:55;;;;;;;23.50;10.70;;;;;;;7.08;37.24;101907.00;5011384;28;20045;-71
2022/03/09 03:54:21;;;;;;;20.10;9.60;;;;;;;7.18;37.15;101905.38;5011289;28;20132;-72
2022/03/09 03:56:48;;;;;;;18.52;9.57;;;;;;;7.19;37.01;101907.09;5012176;28;20056;-71
2022/03/09 03:59:14;;;;;;;23.60;10.48;;;;;;;7.07;37.10;101909.78;5011950;28;20570;-71
2022/03/09 04:01:41;;;;;;;21.10;9.38;;;;;;;7.02;37.30;101911.94;5011589;28;20513;-71
2022/03/09 04:04:07;;;;;;;18.23;9.57;;;;;;;7.01;37.24;101910.22;5012059;28;20054;-72
2022/03/09 04:06:34;;;;;;;19.83;10.13;;;;;;;6.91;37.52;101916.22;5011251;28;20038;-71
2022/03/09 04:09:00;;;;;;;19.70;9.90;;;;;;;6.93;37.37;101918.75;5013723;28;20096;-71
2022/03/09 04:11:27;;;;;;;19.20;10.73;;;;;;;6.88;37.50;101915.56;5015300;28;20405;-71
2022/03/09 04:13:53;;;;;;;20.25;10.60;;;;;;;6.85;37.37;101915.78;5015265;28;20049;-71
2022/03/09 04:16:20;;;;;;;21.08;9.60;;;;;;;6.94;37.45;101917.78;5015807;28;20073;-71
2022/03/09 04:18:49;;;;;;;23.33;10.48;;;;;;;6.80;37.40;101918.75;5015289;28;20100;-71
2022/03/09 04:21:15;;;;;;;23.45;10.05;;;;;;;6.81;37.29;101923.16;5015303;28;20061;-72
2022/03/09 04:23:42;;;;;;;18.17;9.70;;;;;;;6.80;37.49;101918.75;5015297;28;20076;-72
2022/03/09 04:26:10;;;;;;;20.48;10.02;;;;;;;6.80;37.29;101913.41;5015103;28;20105;-72
2022/03/09 04:28:36;;;;;;;20.45;10.35;;;;;;;6.79;37.27;101910.88;5015232;28;20046;-72
2022/03/09 04:31:05;;;;;;;21.92;8.82;;;;;;;6.81;37.41;101923.16;5015240;28;20060;-71
2022/03/09 04:33:32;;;;;;;23.23;9.65;;;;;;;6.81;37.05;101924.97;5015237;28;20080;-71
2022/03/09 04:35:59;;;;;;;20.90;8.80;;;;;;;6.74;37.42;101929.88;5015843;28;20167;-71
2022/03/09 04:38:26;;;;;;;19.58;9.45;;;;;;;6.77;37.42;101931.44;4997782;28;20129;-71
2022/03/09 04:40:52;;;;;;;20.73;9.65;;;;;;;6.69;37.49;101922.16;5015352;28;20088;-71
2022/03/09 04:43:19;;;;;;;18.38;9.25;;;;;;;6.78;37.31;101927.84;5015802;28;20076;-71
2022/03/09 04:45:45;;;;;;;21.10;10.30;;;;;;;6.69;37.32;101922.16;5014545;28;20073;-71
2022/03/09 04:48:12;;;;;;;20.02;9.40;;;;;;;6.76;37.49;101924.41;5015263;28;20056;-71
2022/03/09 04:50:38;;;;;;;22.08;8.80;;;;;;;6.76;37.28;101933.25;5014718;28;20128;-71
2022/03/09 04:53:05;;;;;;;19.88;9.18;;;;;;;6.67;37.48;101924.09;5014569;28;20050;-71
2022/03/09 04:55:31;;;;;;;18.08;9.05;;;;;;;6.70;37.63;101923.00;5014242;28;20124;-71
2022/03/09 04:57:58;;;;;;;20.90;9.10;;;;;;;6.61;37.49;101921.00;5014715;28;20134;-72
2022/03/09 05:00:25;;;;;;;16.10;8.82;;;;;;;6.72;37.30;101926.44;5013893;28;20482;-71
2022/03/09 05:02:51;;;;;;;20.63;8.98;;;;;;;6.73;37.30;101933.47;5014294;28;20504;-72
2022/03/09 05:05:18;;;;;;;18.65;8.68;;;;;;;6.67;37.38;101923.25;5014292;28;20049;-71
2022/03/09 05:07:45;;;;;;;19.27;8.60;;;;;;;6.69;37.39;101922.16;5014475;28;20129;-71
2022/03/09 05:10:12;;;;;;;20.02;8.80;;;;;;;6.64;37.51;101913.63;5014423;28;20589;-71
2022/03/09 05:12:38;;;;;;;22.08;9.07;;;;;;;6.57;37.55;101907.03;5013905;28;20053;-72
2022/03/09 05:15:05;;;;;;;19.42;7.72;;;;;;;6.49;37.88;101914.66;5013755;28;20110;-71
2022/03/09 05:17:38;;;;;;;14.85;7.68;;;;;;;6.53;37.41;101909.97;5016768;28;20386;-72
2022/03/09 05:20:05;;;;;;;15.02;8.23;;;;;;;6.54;37.57;101909.03;5013168;28;20124;-72
2022/03/09 05:22:34;;;;;;;18.17;8.63;;;;;;;6.53;37.31;101913.53;5013842;28;20042;-70
2022/03/09 05:25:00;;;;;;;15.98;8.60;;;;;;;6.52;37.35;101914.47;5016830;28;20076;-72
2022/03/09 05:27:27;;;;;;;17.15;8.85;;;;;;;6.55;37.73;101908.06;5014459;28;20491;-71
2022/03/09 05:29:54;;;;;;;16.77;8.32;;;;;;;6.56;37.55;101915.94;5014020;28;20053;-71
2022/03/09 05:32:20;;;;;;;17.85;8.23;;;;;;;6.51;37.58;101915.44;5017043;28;20133;-71
2022/03/09 05:34:49;;;;;;;24.98;8.35;;;;;;;6.57;37.58;101927.50;5013461;28;20076;-71
2022/03/09 05:37:22;;;;;;;17.42;7.80;;;;;;;6.57;37.55;101920.34;5014003;28;20126;-71
2022/03/09 05:39:49;;;;;;;17.20;7.40;;;;;;;6.47;38.27;101932.59;5013874;28;20382;-71
2022/03/09 05:42:16;;;;;;;25.67;9.38;;;;;;;6.52;37.78;101937.59;5014255;28;20054;-70
2022/03/09 05:44:42;;;;;;;25.42;8.63;;;;;;;6.51;37.82;101944.75;5013871;28;20466;-71
2022/03/09 05:47:09;;;;;;;18.27;8.45;;;;;;;6.44;37.74;101944.31;5013385;28;20077;-71
2022/03/09 05:49:35;;;;;;;20.85;8.65;;;;;;;6.47;37.84;101946.78;5013405;28;20058;-70
2022/03/09 05:52:02;;;;;;;19.95;8.40;;;;;;;6.52;37.48;101942.94;5023181;28;20049;-70
2022/03/09 05:54:28;;;;;;;20.20;9.07;;;;;;;6.48;37.80;101942.28;5033372;28;20065;-71
2022/03/09 05:56:55;;;;;;;18.92;8.70;;;;;;;6.50;37.45;101950.19;5026768;28;20046;-70
2022/03/09 05:59:21;;;;;;;17.67;8.93;;;;;;;6.50;37.66;101952.88;5013141;28;20054;-71
2022/03/09 06:01:48;;;;;;;22.15;9.63;;;;;;;6.47;37.65;101956.59;5013595;28;20474;-70
2022/03/09 06:04:14;;;;;;;18.67;8.90;;;;;;;6.49;37.63;101952.00;5013053;28;20056;-70
2022/03/09 06:06:41;;;;;;;18.00;9.40;;;;;;;6.55;37.56;101962.25;5012687;28;20046;-70
2022/03/09 06:09:07;;;;;;;21.48;9.35;;;;;;;6.47;37.54;101965.44;5017043;28;21207;-70
2022/03/09 06:11:34;;;;;;;32.15;9.80;;;;;;;6.47;37.93;101973.44;5013599;28;20041;-70
2022/03/09 06:14:00;;;;;;;16.05;8.70;;;;;;;6.58;37.68;101972.72;5013395;28;20136;-71
2022/03/09 06:16:27;;;;;;;21.45;9.48;;;;;;;6.45;37.93;101979.81;5015939;28;20478;-71
2022/03/09 06:18:53;;;;;;;23.38;9.88;;;;;;;6.48;37.85;101976.94;5015447;28;20131;-72
2022/03/09 06:21:20;;;;;;;18.70;9.52;;;;;;;6.52;37.96;101978.44;5012346;28;20050;-71
2022/03/09 06:23:47;;;;;;;19.63;10.02;;;;;;;6.60;37.64;101978.81;5012580;28;20038;-69
2022/03/09 06:26:13;;;;;;;22.55;9.68;;;;;;;6.56;37.96;101985.28;5019661;28;20068;-71
2022/03/09 06:28:40;;;;;;;19.40;10.38;;;;;;;6.64;37.77;101982.97;5008716;28;20451;-71
2022/03/09 06:31:07;;;;;;;22.60;11.15;;;;;;;6.62;37.76;101974.19;5014182;28;20401;-71
2022/03/09 06:33:33;;;;;;;20.52;10.77;;;;;;;6.64;37.91;101982.13;5012336;28;20046;-71
2022/03/09 06:36:00;;;;;;;28.25;11.02;;;;;;;6.71;37.82;101984.25;5012078;28;20190;-71
2022/03/09 06:38:27;;;;;;;21.42;10.80;;;;;;;6.71;37.85;101976.25;5011878;28;20046;-70
2022/03/09 06:40:56;;;;;;;20.60;10.18;;;;;;;6.84;37.48;101984.28;5011756;28;20132;-70
2022/03/09 06:43:22;;;;;;;27.33;11.35;;;;;;;6.88;37.77;101982.25;5011948;28;20094;-70
2022/03/09 06:45:49;;;;;;;30.42;14.07;;;;;;;6.93;37.64;101988.13;5014973;28;20168;-70
2022/03/09 06:48:15;;;;;;;19.95;10.52;;;;;;;7.04;37.39;101995.38;5014362;28;20104;-71
2022/03/09 06:50:43;;;;;;;30.92;12.48;;;;;;;7.08;37.43;101986.19;5012125;28;20492;-71
2022/03/09 06:53:11;;;;;;;24.92;12.38;;;;;;;6.91;37.76;101988.25;5011653;28;20046;-71
2022/03/09 06:55:37;;;;;;;23.55;11.55;;;;;;;6.73;38.13;101991.28;5012765;28;20042;-71
2022/03/09 06:58:04;;;;;;;23.67;12.23;;;;;;;6.99;37.88;101986.84;5015731;28;20050;-71
2022/03/09 07:00:30;;;;;;;27.92;12.00;;;;;;;7.20;37.56;101993.38;5014081;28;20100;-71
2022/03/09 07:02:59;;;;;;;20.98;11.27;;;;;;;7.39;37.14;101992.91;5012056;28;20132;-71
2022/03/09 07:05:26;;;;;;;24.55;13.20;;;;;;;7.60;36.83;101996.75;5011364;28;20042;-71
2022/03/09 07:07:52;;;;;;;31.52;11.88;;;;;;;7.83;36.36;101991.56;5011397;28;20048;-71
2022/03/09 07:10:19;;;;;;;24.67;12.18;;;;;;;8.11;36.15;101993.94;5012424;28;20054;-72
2022/03/09 07:12:48;;;;;;;29.25;13.25;;;;;;;8.43;35.54;101992.50;5012611;28;20449;-71
2022/03/09 07:15:15;;;;;;;22.05;11.88;;;;;;;8.87;35.17;101996.31;5011718;28;20069;-71
2022/03/09 07:17:43;;;;;;;24.77;12.32;;;;;;;9.47;34.08;101990.72;5011036;28;20133;-72
2022/03/09 07:20:10;;;;;;;29.48;12.05;;;;;;;10.15;32.62;101985.25;5011918;28;20077;-71
2022/03/09 07:22:42;;;;;;;24.13;11.40;;;;;;;10.85;31.62;101989.22;5012092;28;20482;-72
2022/03/09 07:25:09;;;;;;;32.70;11.80;;;;;;;11.41;30.42;101981.63;5018270;28;20046;-72
2022/03/09 07:27:36;;;;;;;26.00;11.43;;;;;;;12.26;29.25;101983.00;5016290;28;20104;-71
2022/03/09 07:30:03;;;;;;;22.80;10.73;;;;;;;12.94;28.24;101982.13;5027834;28;20041;-72
2022/03/09 07:32:30;;;;;;;20.67;11.00;;;;;;;13.45;27.46;101986.22;5011541;28;20378;-72
2022/03/09 07:35:14;;;;;;;22.38;10.75;;;;;;;13.98;26.42;101991.81;5011620;28;20056;-72
2022/03/09 07:37:41;;;;;;;22.38;10.20;;;;;;;13.89;26.29;101981.06;5011809;28;20133;-72
2022/03/09 07:40:08;;;;;;;18.60;8.93;;;;;;;14.54;25.23;101984.44;5012513;28;20459;-72
2022/03/09 07:42:35;;;;;;;19.15;9.35;;;;;;;15.01;24.63;101997.63;5012583;28;20477;-71
2022/03/09 07:45:05;;;;;;;16.90;9.30;;;;;;;15.37;24.04;101992.13;5018358;28;20065;-71
2022/03/09 07:47:32;;;;;;;20.08;9.48;;;;;;;16.08;23.21;102001.72;5017974;28;20125;-72
2022/03/09 07:50:00;;;;;;;19.40;10.60;;;;;;;15.81;23.21;102005.53;5019665;28;20054;-71
2022/03/09 07:52:26;;;;;;;25.52;15.45;;;;;;;15.91;23.11;102000.81;5035153;28;20065;-72
2022/03/09 07:54:53;;;;;;;24.20;13.75;;;;;;;16.37;22.79;102001.28;5016227;28;20102;-71
2022/03/09 07:57:19;;;;;;;25.90;13.70;;;;;;;16.78;22.14;101998.59;5029273;28;20120;-70
2022/03/09 07:59:46;;;;;;;21.30;9.60;;;;;;;16.40;22.58;102006.34;5018312;28;20045;-72
2022/03/09 08:02:12;;;;;;;29.20;9.95;;;;;;;16.59;22.57;102006.06;5017437;28;20493;-71
2022/03/09 08:04:39;;;;;;;20.83;9.13;;;;;;;17.17;21.79;101998.75;5015443;28;20052;-71
2022/03/09 08:07:06;;;;;;;31.67;10.32;;;;;;;17.24;21.46;102005.16;5016682;28;20046;-71
2022/03/09 08:09:33;;;;;;;20.90;10.00;;;;;;;17.05;21.65;102000.94;5016784;28;20069;-71
2022/03/09 08:11:59;;;;;;;13.30;8.98;;;;;;;17.45;21.61;101992.94;5014992;28;20442;-72
2022/03/09 08:14:26;;;;;;;14.60;9.30;;;;;;;17.51;21.40;101997.63;5014531;28;20136;-71
2022/03/09 08:16:52;;;;;;;18.70;8.00;;;;;;;18.15;21.61;101986.66;5014120;28;20096;-71
2022/03/09 08:19:19;;;;;;;19.23;8.68;;;;;;;17.95;20.95;101991.66;5021143;28;20124;-71
2022/03/09 08:21:45;;;;;;;19.77;7.18;;;;;;;18.45;20.21;101987.66;5018556;28;20466;-71
2022/03/09 08:24:12;;;;;;;14.95;7.28;;;;;;;18.07;20.75;101993.81;5017784;28;20048;-71
2022/03/09 08:26:38;;;;;;;16.65;7.30;;;;;;;18.23;20.74;101990.16;5013845;28;20129;-71
2022/03/09 08:29:04;;;;;;;14.82;8.38;;;;;;;18.55;20.13;101991.81;5015374;28;20125;-71
2022/03/09 08:31:31;;;;;;;14.90;6.68;;;;;;;18.70;19.98;101993.72;5015956;28;20133;-71
2022/03/09 08:33:58;;;;;;;15.25;7.55;;;;;;;19.23;19.50;102008.19;5003528;28;20050;-71
2022/03/09 08:36:25;;;;;;;11.57;7.20;;;;;;;18.82;19.43;102002.28;5013940;28;20069;-71
2022/03/09 08:38:51;;;;;;;12.18;6.60;;;;;;;18.85;19.32;102000.03;5013881;28;20450;-71
2022/03/09 08:41:18;;;;;;;10.88;6.10;;;;;;;18.97;19.17;101995.88;5012350;28;20124;-71
2022/03/09 08:43:44;;;;;;;13.90;6.95;;;;;;;18.85;19.05;102005.47;5013911;28;20056;-71
2022/03/09 08:46:11;;;;;;;10.88;6.03;;;;;;;18.47;19.72;101993.72;5016726;28;20426;-72
2022/03/09 08:48:39;;;;;;;16.95;6.75;;;;;;;18.87;19.07;101998.00;5014381;28;20050;-71
2022/03/09 08:51:07;;;;;;;11.70;7.10;;;;;;;18.32;19.44;101999.13;5014586;28;20208;-71
2022/03/09 08:53:34;;;;;;;11.88;6.78;;;;;;;18.95;19.05;102005.25;5016830;28;20136;-71
2022/03/09 08:56:00;;;;;;;8.70;6.10;;;;;;;19.15;18.68;102006.41;5013270;28;20455;-71
2022/03/09 08:58:27;;;;;;;15.93;6.90;;;;;;;19.29;18.83;102002.00;5012856;28;20065;-71
2022/03/09 09:00:54;;;;;;;12.90;6.97;;;;;;;19.28;18.37;102000.34;5012884;28;20045;-71
2022/03/09 09:03:22;;;;;;;12.02;6.50;;;;;;;18.97;18.85;101993.16;5013926;28;20073;-72
2022/03/09 09:05:49;;;;;;;12.20;6.40;;;;;;;18.95;18.99;102000.66;5016784;28;20049;-71
2022/03/09 09:08:15;;;;;;;13.48;6.60;;;;;;;19.47;18.36;101988.03;5012683;28;20046;-71
2022/03/09 09:10:42;;;;;;;14.25;7.25;;;;;;;19.69;18.26;102002.56;5013353;28;20428;-72
2022/03/09 09:13:09;;;;;;;11.20;6.80;;;;;;;19.48;18.15;102001.47;5013708;28;20489;-72
2022/03/09 09:15:35;;;;;;;10.73;7.00;;;;;;;20.28;17.28;102007.91;5013318;28;20117;-72
2022/03/09 09:18:04;;;;;;;14.00;6.60;;;;;;;19.85;18.01;102005.09;5016842;28;20050;-71
2022/03/09 09:20:50;;;;;;;11.18;6.88;;;;;;;19.84;18.08;102010.75;5017015;28;20469;-72
2022/03/09 09:23:17;;;;;;;15.32;7.38;;;;;;;19.99;17.39;102008.81;5012964;28;20042;-72
2022/03/09 09:25:45;;;;;;;15.18;7.22;;;;;;;19.09;18.67;102003.59;5012566;28;20049;-72
2022/03/09 09:28:13;;;;;;;12.30;7.13;;;;;;;19.92;17.60;102003.28;5032405;28;20081;-72
2022/03/09 09:30:40;;;;;;;17.15;7.47;;;;;;;19.32;18.20;102004.38;5031380;28;20065;-72
2022/03/09 09:33:06;;;;;;;10.95;6.20;;;;;;;19.89;17.79;102005.56;5031657;28;20088;-72
2022/03/09 09:35:33;;;;;;;10.30;5.57;;;;;;;20.83;16.83;102000.03;5031989;28;20069;-72
2022/03/09 09:38:19;;;;;;;9.60;5.40;;;;;;;20.52;16.71;102003.13;5017561;28;20486;-72
2022/03/09 09:40:48;;;;;;;11.82;5.68;;;;;;;19.79;17.63;102000.41;5013011;28;20207;-72
2022/03/09 09:43:16;;;;;;;12.73;4.55;;;;;;;19.04;17.92;102006.03;5012664;28;20080;-72
2022/03/09 09:45:43;;;;;;;9.90;5.20;;;;;;;19.20;18.00;102003.97;5013101;28;20124;-72
2022/03/09 09:48:11;;;;;;;12.23;5.05;;;;;;;19.44;17.94;102005.56;5013344;28;20490;-73
2022/03/09 09:50:39;;;;;;;12.73;5.30;;;;;;;19.74;17.57;102000.13;5013013;28;20096;-73
2022/03/09 09:53:08;;;;;;;13.77;4.95;;;;;;;20.09;17.37;102001.19;5013144;28;20137;-73
2022/03/09 09:55:35;;;;;;;8.90;4.78;;;;;;;19.61;17.84;101999.94;5021634;28;20073;-72
2022/03/09 09:58:02;;;;;;;8.27;4.80;;;;;;;20.16;17.16;101998.53;5019598;28;20485;-72
2022/03/09 10:00:30;;;;;;;10.57;5.82;;;;;;;19.43;17.66;101998.44;5031920;28;20075;-72
2022/03/09 10:03:01;;;;;;;12.27;6.35;;;;;;;19.18;17.98;101999.75;5017631;28;20128;-72
2022/03/09 10:05:27;;;;;;;16.50;7.00;;;;;;;18.95;18.01;102003.38;5015862;28;20124;-72
2022/03/09 10:08:03;;;;;;;17.13;6.38;;;;;;;20.14;17.20;101993.28;5015197;28;20443;-72
2022/03/09 10:10:31;;;;;;;12.55;5.65;;;;;;;20.64;16.62;101990.66;5010209;28;20046;-73
2022/03/09 10:13:15;;;;;;;18.83;6.70;;;;;;;20.10;17.35;101991.97;5011065;28;20414;-73
2022/03/09 10:15:44;;;;;;;16.02;6.65;;;;;;;20.66;16.66;101983.09;5011766;28;20050;-73
2022/03/09 10:18:20;;;;;;;14.68;6.78;;;;;;;21.42;16.24;101987.88;5012767;28;20070;-73
2022/03/09 10:20:48;;;;;;;10.75;6.18;;;;;;;21.34;15.78;101986.16;5010608;28;20259;-73
2022/03/09 10:23:16;;;;;;;14.45;7.40;;;;;;;20.89;16.19;101991.91;5011516;28;20096;-74
2022/03/09 10:25:43;;;;;;;14.25;6.97;;;;;;;20.65;16.29;101987.72;5002155;28;20145;-74
2022/03/09 10:28:12;;;;;;;16.30;7.68;;;;;;;18.92;17.59;101990.13;5011221;28;20128;-73
2022/03/09 10:30:41;;;;;;;14.10;6.97;;;;;;;18.50;17.92;101982.50;5021581;28;20049;-74
2022/03/09 10:33:10;;;;;;;17.30;7.43;;;;;;;17.36;19.28;101989.38;5032007;28;20084;-73
2022/03/09 10:35:43;;;;;;;122.03;15.05;;;;;;;17.13;19.57;101997.41;5030735;28;20457;-74
2022/03/09 10:38:15;;;;;;;21.90;7.18;;;;;;;17.00;19.96;102000.63;5032110;28;20077;-73
2022/03/09 10:40:47;;;;;;;18.10;6.50;;;;;;;17.65;19.16;101994.22;5031791;28;20080;-73
2022/03/09 10:43:16;;;;;;;13.30;6.45;;;;;;;18.43;18.44;101993.25;5031797;28;20076;-73
2022/03/09 10:46:16;;;;;;;11.93;5.57;;;;;;;18.73;18.24;101982.50;5020700;28;20045;-73
2022/03/09 10:49:00;;;;;;;14.98;6.93;;;;;;;19.11;17.92;101983.34;4990427;28;20065;-72
2022/03/09 10:51:30;;;;;;;13.38;7.70;;;;;;;19.08;17.59;101988.31;5012260;28;20128;-72
2022/03/09 10:53:58;;;;;;;15.63;6.90;;;;;;;19.36;17.46;101980.34;5012164;28;20073;-72
2022/03/09 10:56:25;;;;;;;13.98;7.57;;;;;;;19.77;16.89;101983.44;5011121;28;20042;-72
2022/03/09 10:58:51;;;;;;;18.05;7.32;;;;;;;19.41;17.43;101976.00;5011958;28;20052;-72
2022/03/09 11:01:19;;;;;;;15.32;7.60;;;;;;;20.09;16.54;101982.13;5011656;28;20069;-71
2022/03/09 11:03:47;;;;;;;14.02;6.47;;;;;;;20.14;16.69;101981.53;5011814;28;20132;-72
2022/03/09 11:06:14;;;;;;;15.52;7.10;;;;;;;19.26;17.29;101983.34;5011025;28;20065;-71
2022/03/09 11:08:44;;;;;;;11.73;7.45;;;;;;;19.29;17.55;101974.81;5011575;28;20074;-71
2022/03/09 11:11:14;;;;;;;15.73;7.80;;;;;;;19.36;17.44;101973.00;5011596;28;20054;-73
2022/03/09 11:13:41;;;;;;;11.68;7.00;;;;;;;19.43;17.25;101973.94;5026011;28;20075;-72
2022/03/09 11:16:08;;;;;;;13.10;6.97;;;;;;;19.06;17.09;101974.03;5030918;28;20057;-72
2022/03/09 11:18:36;;;;;;;18.23;7.88;;;;;;;17.93;18.35;101977.44;5034560;28;20060;-72
2022/03/09 11:21:07;;;;;;;17.05;8.13;;;;;;;17.91;18.25;101971.34;5036176;28;20076;-74
2022/03/09 11:23:38;;;;;;;18.50;8.43;;;;;;;17.36;18.95;101975.81;5035229;28;20055;-73
2022/03/09 11:26:09;;;;;;;16.83;8.37;;;;;;;17.27;18.99;101971.44;5035384;28;20088;-73